Time;durP1;ratioP1;P1;durP2;ratioP2;P2;SDS_P1;SDS_P2;PMS_P1;PMS_P2;Temp;Humidity;BMP_temperature;BMP_pressure;BME280_temperature;BME280_humidity;BME280_pressure;Samples;Min_cycle;Max_cycle;Signal;HPM_P1;HPM_P2
2021/02/25 00:00:48;;;;;;;24.85;5.349999;;;;;;;3.48;79.875;96514.18;;;;
2021/02/25 00:01:49;;;;;;;24.85;5.349999;;;;;;;3.48;79.875;96514.18;;;;
2021/02/25 00:02:50;;;;;;;24.85;5.349999;;;;;;;3.48;79.875;96514.18;;;;
2021/02/25 00:03:50;;;;;;;24.85;5.349999;;;;;;;3.48;79.875;96514.18;;;;
2021/02/25 00:04:50;;;;;;;24.85;5.349999;;;;;;;3.48;79.875;96514.18;;;;
2021/02/25 00:05:51;;;;;;;24.85;5.349999;;;;;;;3.48;79.875;96514.18;;;;
2021/02/25 00:06:52;;;;;;;21.55;5.299999;;;;;;;3.37;80.10645;96499.8;;;;
2021/02/25 00:07:52;;;;;;;21.55;5.299999;;;;;;;3.37;80.10645;96499.8;;;;
2021/02/25 00:08:53;;;;;;;21.55;5.299999;;;;;;;3.37;80.10645;96499.8;;;;
2021/02/25 00:09:53;;;;;;;21.55;5.299999;;;;;;;3.37;80.10645;96499.8;;;;
2021/02/25 00:10:54;;;;;;;21.55;5.299999;;;;;;;3.37;80.10645;96499.8;;;;
2021/02/25 00:11:54;;;;;;;21.55;5.299999;;;;;;;3.37;80.10645;96499.8;;;;
2021/02/25 00:12:55;;;;;;;21.55;5.299999;;;;;;;3.37;80.10645;96499.8;;;;
2021/02/25 00:13:56;;;;;;;21.55;5.299999;;;;;;;3.37;80.10645;96499.8;;;;
2021/02/25 00:14:57;;;;;;;21.55;5.299999;;;;;;;3.37;80.10645;96499.8;;;;
2021/02/25 00:15:57;;;;;;;21.55;5.299999;;;;;;;3.37;80.10645;96499.8;;;;
2021/02/25 00:16:59;;;;;;;14.45;4.7;;;;;;;3.27;80.39355;96499.53;;;;
2021/02/25 00:17:59;;;;;;;14.45;4.7;;;;;;;3.27;80.39355;96499.53;;;;
2021/02/25 00:19:00;;;;;;;14.45;4.7;;;;;;;3.27;80.39355;96499.53;;;;
2021/02/25 00:20:00;;;;;;;14.45;4.7;;;;;;;3.27;80.39355;96499.53;;;;
2021/02/25 00:21:01;;;;;;;14.45;4.7;;;;;;;3.27;80.39355;96499.53;;;;
2021/02/25 00:22:02;;;;;;;14.45;4.7;;;;;;;3.27;80.39355;96499.53;;;;
2021/02/25 00:23:03;;;;;;;14.45;4.7;;;;;;;3.27;80.39355;96499.53;;;;
2021/02/25 00:24:04;;;;;;;14.45;4.7;;;;;;;3.27;80.39355;96499.53;;;;
2021/02/25 00:25:06;;;;;;;14.45;4.7;;;;;;;3.27;80.39355;96499.53;;;;
2021/02/25 00:26:08;;;;;;;14.45;4.7;;;;;;;3.27;80.39355;96499.53;;;;
2021/02/25 00:27:10;;;;;;;14.45;4.7;;;;;;;3.27;80.39355;96499.53;;;;
2021/02/25 00:28:10;;;;;;;18.7;5.2;;;;;;;3.18;80.59668;96500.07;;;;
2021/02/25 00:29:11;;;;;;;18.7;5.2;;;;;;;3.18;80.59668;96500.07;;;;
2021/02/25 00:30:11;;;;;;;18.7;5.2;;;;;;;3.18;80.59668;96500.07;;;;
2021/02/25 00:31:16;;;;;;;18.7;5.2;;;;;;;3.18;80.59668;96500.07;;;;
2021/02/25 00:32:18;;;;;;;18.7;5.2;;;;;;;3.18;80.59668;96500.07;;;;
2021/02/25 00:33:19;;;;;;;18.7;5.2;;;;;;;3.18;80.59668;96500.07;;;;
2021/02/25 00:34:20;;;;;;;18.7;5.2;;;;;;;3.18;80.59668;96500.07;;;;
2021/02/25 00:35:20;;;;;;;18.7;5.2;;;;;;;3.18;80.59668;96500.07;;;;
2021/02/25 00:36:21;;;;;;;18.7;5.2;;;;;;;3.18;80.59668;96500.07;;;;
2021/02/25 00:37:22;;;;;;;18.7;5.2;;;;;;;3.18;80.59668;96500.07;;;;
2021/02/25 00:38:22;;;;;;;21.6;5.1;;;;;;;3.05;80.89648;96508.09;;;;
2021/02/25 00:39:23;;;;;;;21.6;5.1;;;;;;;3.05;80.89648;96508.09;;;;
2021/02/25 00:40:24;;;;;;;21.6;5.1;;;;;;;3.05;80.89648;96508.09;;;;
2021/02/25 00:41:28;;;;;;;21.6;5.1;;;;;;;3.05;80.89648;96508.09;;;;
2021/02/25 00:42:29;;;;;;;21.6;5.1;;;;;;;3.05;80.89648;96508.09;;;;
2021/02/25 00:43:29;;;;;;;21.6;5.1;;;;;;;3.05;80.89648;96508.09;;;;
2021/02/25 00:44:31;;;;;;;21.6;5.1;;;;;;;3.05;80.89648;96508.09;;;;
2021/02/25 00:45:32;;;;;;;21.6;5.1;;;;;;;3.05;80.89648;96508.09;;;;
2021/02/25 00:46:34;;;;;;;21.6;5.1;;;;;;;3.05;80.89648;96508.09;;;;
2021/02/25 00:47:35;;;;;;;21.6;5.1;;;;;;;3.05;80.89648;96508.09;;;;
2021/02/25 00:48:35;;;;;;;23.5;4.8;;;;;;;2.89;81.24414;96502.69;;;;
2021/02/25 00:49:36;;;;;;;23.5;4.8;;;;;;;2.89;81.24414;96502.69;;;;
2021/02/25 00:50:37;;;;;;;23.5;4.8;;;;;;;2.89;81.24414;96502.69;;;;
2021/02/25 00:51:40;;;;;;;23.5;4.8;;;;;;;2.89;81.24414;96502.69;;;;
2021/02/25 00:52:40;;;;;;;23.5;4.8;;;;;;;2.89;81.24414;96502.69;;;;
2021/02/25 00:53:41;;;;;;;23.5;4.8;;;;;;;2.89;81.24414;96502.69;;;;
2021/02/25 00:54:41;;;;;;;23.5;4.8;;;;;;;2.89;81.24414;96502.69;;;;
2021/02/25 00:55:42;;;;;;;23.5;4.8;;;;;;;2.89;81.24414;96502.69;;;;
2021/02/25 00:56:44;;;;;;;23.5;4.8;;;;;;;2.89;81.24414;96502.69;;;;
2021/02/25 00:57:44;;;;;;;23.5;4.8;;;;;;;2.89;81.24414;96502.69;;;;
2021/02/25 00:58:45;;;;;;;23.5;4.8;;;;;;;2.89;81.24414;96502.69;;;;
2021/02/25 00:59:46;;;;;;;17.8;5.2;;;;;;;2.86;81.76367;96489.26;;;;
2021/02/25 01:00:46;;;;;;;17.8;5.2;;;;;;;2.86;81.76367;96489.26;;;;
2021/02/25 01:01:49;;;;;;;17.8;5.2;;;;;;;2.86;81.76367;96489.26;;;;
2021/02/25 01:02:51;;;;;;;17.8;5.2;;;;;;;2.86;81.76367;96489.26;;;;
2021/02/25 01:03:52;;;;;;;17.8;5.2;;;;;;;2.86;81.76367;96489.26;;;;
2021/02/25 01:04:53;;;;;;;17.8;5.2;;;;;;;2.86;81.76367;96489.26;;;;
2021/02/25 01:05:53;;;;;;;17.8;5.2;;;;;;;2.86;81.76367;96489.26;;;;
2021/02/25 01:06:54;;;;;;;17.8;5.2;;;;;;;2.86;81.76367;96489.26;;;;
2021/02/25 01:07:54;;;;;;;17.8;5.2;;;;;;;2.86;81.76367;96489.26;;;;
2021/02/25 01:08:55;;;;;;;17.8;5.2;;;;;;;2.86;81.76367;96489.26;;;;
2021/02/25 01:09:55;;;;;;;17.8;5.2;;;;;;;2.86;81.76367;96489.26;;;;
2021/02/25 01:10:56;;;;;;;17.7;5;;;;;;;2.82;81.68262;96486.56;;;;
2021/02/25 01:11:57;;;;;;;17.7;5;;;;;;;2.82;81.68262;96486.56;;;;
2021/02/25 01:12:57;;;;;;;17.7;5;;;;;;;2.82;81.68262;96486.56;;;;
2021/02/25 01:13:58;;;;;;;17.7;5;;;;;;;2.82;81.68262;96486.56;;;;
2021/02/25 01:14:58;;;;;;;17.7;5;;;;;;;2.82;81.68262;96486.56;;;;
2021/02/25 01:15:59;;;;;;;17.7;5;;;;;;;2.82;81.68262;96486.56;;;;
2021/02/25 01:17:00;;;;;;;17.7;5;;;;;;;2.82;81.68262;96486.56;;;;
2021/02/25 01:18:00;;;;;;;17.7;5;;;;;;;2.82;81.68262;96486.56;;;;
2021/02/25 01:19:01;;;;;;;17.7;5;;;;;;;2.82;81.68262;96486.56;;;;
2021/02/25 01:20:02;;;;;;;17.7;5;;;;;;;2.82;81.68262;96486.56;;;;
2021/02/25 01:21:05;;;;;;;18.3;4.699999;;;;;;;2.63;81.83594;96485.86;;;;
2021/02/25 01:22:05;;;;;;;18.3;4.699999;;;;;;;2.63;81.83594;96485.86;;;;
2021/02/25 01:23:06;;;;;;;18.3;4.699999;;;;;;;2.63;81.83594;96485.86;;;;
2021/02/25 01:24:07;;;;;;;18.3;4.699999;;;;;;;2.63;81.83594;96485.86;;;;
2021/02/25 01:25:08;;;;;;;18.3;4.699999;;;;;;;2.63;81.83594;96485.86;;;;
2021/02/25 01:26:11;;;;;;;18.3;4.699999;;;;;;;2.63;81.83594;96485.86;;;;
2021/02/25 01:27:12;;;;;;;18.3;4.699999;;;;;;;2.63;81.83594;96485.86;;;;
2021/02/25 01:28:12;;;;;;;18.3;4.699999;;;;;;;2.63;81.83594;96485.86;;;;
2021/02/25 01:29:13;;;;;;;18.3;4.699999;;;;;;;2.63;81.83594;96485.86;;;;
2021/02/25 01:30:13;;;;;;;18.3;4.699999;;;;;;;2.63;81.83594;96485.86;;;;
2021/02/25 01:31:17;;;;;;;15.85;5.2;;;;;;;2.46;82.25195;96481.02;;;;
2021/02/25 01:32:17;;;;;;;15.85;5.2;;;;;;;2.46;82.25195;96481.02;;;;
2021/02/25 01:33:18;;;;;;;15.85;5.2;;;;;;;2.46;82.25195;96481.02;;;;
2021/02/25 01:34:18;;;;;;;15.85;5.2;;;;;;;2.46;82.25195;96481.02;;;;
2021/02/25 01:35:19;;;;;;;15.85;5.2;;;;;;;2.46;82.25195;96481.02;;;;
2021/02/25 01:36:22;;;;;;;15.85;5.2;;;;;;;2.46;82.25195;96481.02;;;;
2021/02/25 01:37:22;;;;;;;15.85;5.2;;;;;;;2.46;82.25195;96481.02;;;;
2021/02/25 01:38:23;;;;;;;15.85;5.2;;;;;;;2.46;82.25195;96481.02;;;;
2021/02/25 01:39:23;;;;;;;15.85;5.2;;;;;;;2.46;82.25195;96481.02;;;;
2021/02/25 01:40:24;;;;;;;15.85;5.2;;;;;;;2.46;82.25195;96481.02;;;;
2021/02/25 01:41:27;;;;;;;15.85;5.2;;;;;;;2.46;82.25195;96481.02;;;;
2021/02/25 01:42:28;;;;;;;18.8;5.15;;;;;;;2.31;82.6543;96481.66;;;;
2021/02/25 01:43:29;;;;;;;18.8;5.15;;;;;;;2.31;82.6543;96481.66;;;;
2021/02/25 01:44:30;;;;;;;18.8;5.15;;;;;;;2.31;82.6543;96481.66;;;;
2021/02/25 01:45:31;;;;;;;18.8;5.15;;;;;;;2.31;82.6543;96481.66;;;;
2021/02/25 01:46:33;;;;;;;18.8;5.15;;;;;;;2.31;82.6543;96481.66;;;;
2021/02/25 01:47:33;;;;;;;18.8;5.15;;;;;;;2.31;82.6543;96481.66;;;;
2021/02/25 01:48:35;;;;;;;18.8;5.15;;;;;;;2.31;82.6543;96481.66;;;;
2021/02/25 01:49:35;;;;;;;18.8;5.15;;;;;;;2.31;82.6543;96481.66;;;;
2021/02/25 01:50:36;;;;;;;18.8;5.15;;;;;;;2.31;82.6543;96481.66;;;;
2021/02/25 01:51:41;;;;;;;18.8;5.15;;;;;;;2.31;82.6543;96481.66;;;;
2021/02/25 01:52:41;;;;;;;20.1;5.349999;;;;;;;2.25;82.83984;96464.98;;;;
2021/02/25 01:53:46;;;;;;;20.1;5.349999;;;;;;;2.25;82.83984;96464.98;;;;
2021/02/25 01:54:46;;;;;;;20.1;5.349999;;;;;;;2.25;82.83984;96464.98;;;;
2021/02/25 01:55:47;;;;;;;20.1;5.349999;;;;;;;2.25;82.83984;96464.98;;;;
2021/02/25 01:56:48;;;;;;;20.1;5.349999;;;;;;;2.25;82.83984;96464.98;;;;
2021/02/25 01:57:49;;;;;;;20.1;5.349999;;;;;;;2.25;82.83984;96464.98;;;;
2021/02/25 01:58:49;;;;;;;20.1;5.349999;;;;;;;2.25;82.83984;96464.98;;;;
2021/02/25 01:59:50;;;;;;;20.1;5.349999;;;;;;;2.25;82.83984;96464.98;;;;
2021/02/25 02:00:50;;;;;;;20.1;5.349999;;;;;;;2.25;82.83984;96464.98;;;;
2021/02/25 02:01:51;;;;;;;20.1;5.349999;;;;;;;2.25;82.83984;96464.98;;;;
2021/02/25 02:02:51;;;;;;;20.1;5.349999;;;;;;;2.25;82.83984;96464.98;;;;
2021/02/25 02:03:52;;;;;;;21.55;5.05;;;;;;;2.1;82.94922;96461.11;;;;
2021/02/25 02:04:53;;;;;;;21.55;5.05;;;;;;;2.1;82.94922;96461.11;;;;
2021/02/25 02:05:54;;;;;;;21.55;5.05;;;;;;;2.1;82.94922;96461.11;;;;
2021/02/25 02:06:57;;;;;;;21.55;5.05;;;;;;;2.1;82.94922;96461.11;;;;
2021/02/25 02:07:57;;;;;;;21.55;5.05;;;;;;;2.1;82.94922;96461.11;;;;
2021/02/25 02:08:58;;;;;;;21.55;5.05;;;;;;;2.1;82.94922;96461.11;;;;
2021/02/25 02:09:58;;;;;;;21.55;5.05;;;;;;;2.1;82.94922;96461.11;;;;
2021/02/25 02:10:59;;;;;;;21.55;5.05;;;;;;;2.1;82.94922;96461.11;;;;
2021/02/25 02:12:00;;;;;;;21.55;5.05;;;;;;;2.1;82.94922;96461.11;;;;
2021/02/25 02:13:01;;;;;;;21.55;5.05;;;;;;;2.1;82.94922;96461.11;;;;
2021/02/25 02:14:02;;;;;;;24.2;5.15;;;;;;;1.96;83.29785;96461.67;;;;
2021/02/25 02:15:03;;;;;;;24.2;5.15;;;;;;;1.96;83.29785;96461.67;;;;
2021/02/25 02:16:06;;;;;;;24.2;5.15;;;;;;;1.96;83.29785;96461.67;;;;
2021/02/25 02:17:07;;;;;;;24.2;5.15;;;;;;;1.96;83.29785;96461.67;;;;
2021/02/25 02:18:07;;;;;;;24.2;5.15;;;;;;;1.96;83.29785;96461.67;;;;
2021/02/25 02:19:08;;;;;;;24.2;5.15;;;;;;;1.96;83.29785;96461.67;;;;
2021/02/25 02:20:09;;;;;;;24.2;5.15;;;;;;;1.96;83.29785;96461.67;;;;
2021/02/25 02:21:10;;;;;;;24.2;5.15;;;;;;;1.96;83.29785;96461.67;;;;
2021/02/25 02:22:11;;;;;;;24.2;5.15;;;;;;;1.96;83.29785;96461.67;;;;
2021/02/25 02:23:12;;;;;;;24.2;5.15;;;;;;;1.96;83.29785;96461.67;;;;
2021/02/25 02:24:12;;;;;;;24.2;5.15;;;;;;;1.96;83.29785;96461.67;;;;
2021/02/25 02:25:13;;;;;;;16.45;4.5;;;;;;;1.83;83.50488;96459.92;;;;
2021/02/25 02:26:16;;;;;;;16.45;4.5;;;;;;;1.83;83.50488;96459.92;;;;
2021/02/25 02:27:16;;;;;;;16.45;4.5;;;;;;;1.83;83.50488;96459.92;;;;
2021/02/25 02:28:18;;;;;;;16.45;4.5;;;;;;;1.83;83.50488;96459.92;;;;
2021/02/25 02:29:18;;;;;;;16.45;4.5;;;;;;;1.83;83.50488;96459.92;;;;
2021/02/25 02:30:19;;;;;;;16.45;4.5;;;;;;;1.83;83.50488;96459.92;;;;
2021/02/25 02:31:22;;;;;;;16.45;4.5;;;;;;;1.83;83.50488;96459.92;;;;
2021/02/25 02:32:23;;;;;;;16.45;4.5;;;;;;;1.83;83.50488;96459.92;;;;
2021/02/25 02:33:23;;;;;;;16.45;4.5;;;;;;;1.83;83.50488;96459.92;;;;
2021/02/25 02:34:24;;;;;;;16.45;4.5;;;;;;;1.83;83.50488;96459.92;;;;
2021/02/25 02:35:25;;;;;;;19.2;4.35;;;;;;;1.69;83.69434;96465.37;;;;
2021/02/25 02:36:26;;;;;;;19.2;4.35;;;;;;;1.69;83.69434;96465.37;;;;
2021/02/25 02:37:26;;;;;;;19.2;4.35;;;;;;;1.69;83.69434;96465.37;;;;
2021/02/25 02:38:27;;;;;;;19.2;4.35;;;;;;;1.69;83.69434;96465.37;;;;
2021/02/25 02:39:27;;;;;;;19.2;4.35;;;;;;;1.69;83.69434;96465.37;;;;
2021/02/25 02:40:28;;;;;;;19.2;4.35;;;;;;;1.69;83.69434;96465.37;;;;
2021/02/25 02:41:30;;;;;;;19.2;4.35;;;;;;;1.69;83.69434;96465.37;;;;
2021/02/25 02:42:30;;;;;;;19.2;4.35;;;;;;;1.69;83.69434;96465.37;;;;
2021/02/25 02:43:31;;;;;;;19.2;4.35;;;;;;;1.69;83.69434;96465.37;;;;
2021/02/25 02:44:31;;;;;;;19.2;4.35;;;;;;;1.69;83.69434;96465.37;;;;
2021/02/25 02:45:32;;;;;;;19.2;4.35;;;;;;;1.69;83.69434;96465.37;;;;
2021/02/25 02:46:35;;;;;;;13.9;4.900001;;;;;;;1.56;84.09863;96469.32;;;;
2021/02/25 02:47:36;;;;;;;13.9;4.900001;;;;;;;1.56;84.09863;96469.32;;;;
2021/02/25 02:48:38;;;;;;;13.9;4.900001;;;;;;;1.56;84.09863;96469.32;;;;
2021/02/25 02:49:39;;;;;;;13.9;4.900001;;;;;;;1.56;84.09863;96469.32;;;;
2021/02/25 02:50:39;;;;;;;13.9;4.900001;;;;;;;1.56;84.09863;96469.32;;;;
2021/02/25 02:51:40;;;;;;;13.9;4.900001;;;;;;;1.56;84.09863;96469.32;;;;
2021/02/25 02:52:41;;;;;;;13.9;4.900001;;;;;;;1.56;84.09863;96469.32;;;;
2021/02/25 02:53:43;;;;;;;13.9;4.900001;;;;;;;1.56;84.09863;96469.32;;;;
2021/02/25 02:54:43;;;;;;;13.9;4.900001;;;;;;;1.56;84.09863;96469.32;;;;
2021/02/25 02:55:44;;;;;;;13.9;4.900001;;;;;;;1.56;84.09863;96469.32;;;;
2021/02/25 02:56:44;;;;;;;16.2;4.55;;;;;;;1.59;84.32227;96468.58;;;;
2021/02/25 02:57:46;;;;;;;16.2;4.55;;;;;;;1.59;84.32227;96468.58;;;;
2021/02/25 02:58:47;;;;;;;16.2;4.55;;;;;;;1.59;84.32227;96468.58;;;;
2021/02/25 02:59:48;;;;;;;16.2;4.55;;;;;;;1.59;84.32227;96468.58;;;;
2021/02/25 03:00:48;;;;;;;16.2;4.55;;;;;;;1.59;84.32227;96468.58;;;;
2021/02/25 03:01:50;;;;;;;16.2;4.55;;;;;;;1.59;84.32227;96468.58;;;;
2021/02/25 03:02:51;;;;;;;16.2;4.55;;;;;;;1.59;84.32227;96468.58;;;;
2021/02/25 03:03:52;;;;;;;16.2;4.55;;;;;;;1.59;84.32227;96468.58;;;;
2021/02/25 03:04:53;;;;;;;16.2;4.55;;;;;;;1.59;84.32227;96468.58;;;;
2021/02/25 03:05:53;;;;;;;16.2;4.55;;;;;;;1.59;84.32227;96468.58;;;;
2021/02/25 03:06:54;;;;;;;16.2;4.55;;;;;;;1.59;84.32227;96468.58;;;;
2021/02/25 03:07:56;;;;;;;15.6;4.4;;;;;;;1.55;84.42969;96467.63;;;;
2021/02/25 03:08:56;;;;;;;15.6;4.4;;;;;;;1.55;84.42969;96467.63;;;;
2021/02/25 03:09:59;;;;;;;15.6;4.4;;;;;;;1.55;84.42969;96467.63;;;;
2021/02/25 03:10:59;;;;;;;15.6;4.4;;;;;;;1.55;84.42969;96467.63;;;;
2021/02/25 03:12:00;;;;;;;15.6;4.4;;;;;;;1.55;84.42969;96467.63;;;;
2021/02/25 03:13:00;;;;;;;15.6;4.4;;;;;;;1.55;84.42969;96467.63;;;;
2021/02/25 03:14:01;;;;;;;15.6;4.4;;;;;;;1.55;84.42969;96467.63;;;;
2021/02/25 03:15:02;;;;;;;15.6;4.4;;;;;;;1.55;84.42969;96467.63;;;;
2021/02/25 03:16:06;;;;;;;15.6;4.4;;;;;;;1.55;84.42969;96467.63;;;;
2021/02/25 03:17:07;;;;;;;15.6;4.4;;;;;;;1.55;84.42969;96467.63;;;;
2021/02/25 03:18:07;;;;;;;18.75;5.100001;;;;;;;1.55;84.65918;96471.62;;;;
2021/02/25 03:19:08;;;;;;;18.75;5.100001;;;;;;;1.55;84.65918;96471.62;;;;
2021/02/25 03:20:09;;;;;;;18.75;5.100001;;;;;;;1.55;84.65918;96471.62;;;;
2021/02/25 03:21:12;;;;;;;18.75;5.100001;;;;;;;1.55;84.65918;96471.62;;;;
2021/02/25 03:22:13;;;;;;;18.75;5.100001;;;;;;;1.55;84.65918;96471.62;;;;
2021/02/25 03:23:13;;;;;;;18.75;5.100001;;;;;;;1.55;84.65918;96471.62;;;;
2021/02/25 03:24:14;;;;;;;18.75;5.100001;;;;;;;1.55;84.65918;96471.62;;;;
2021/02/25 03:25:14;;;;;;;18.75;5.100001;;;;;;;1.55;84.65918;96471.62;;;;
2021/02/25 03:26:18;;;;;;;18.75;5.100001;;;;;;;1.55;84.65918;96471.62;;;;
2021/02/25 03:27:18;;;;;;;18.75;5.100001;;;;;;;1.55;84.65918;96471.62;;;;
2021/02/25 03:28:19;;;;;;;18.75;5.100001;;;;;;;1.55;84.65918;96471.62;;;;
2021/02/25 03:29:19;;;;;;;22.25;4.400001;;;;;;;1.42;84.67676;96474.24;;;;
2021/02/25 03:30:20;;;;;;;22.25;4.400001;;;;;;;1.42;84.67676;96474.24;;;;
2021/02/25 03:31:22;;;;;;;22.25;4.400001;;;;;;;1.42;84.67676;96474.24;;;;
2021/02/25 03:32:22;;;;;;;22.25;4.400001;;;;;;;1.42;84.67676;96474.24;;;;
2021/02/25 03:33:22;;;;;;;22.25;4.400001;;;;;;;1.42;84.67676;96474.24;;;;
2021/02/25 03:34:23;;;;;;;22.25;4.400001;;;;;;;1.42;84.67676;96474.24;;;;
2021/02/25 03:35:24;;;;;;;22.25;4.400001;;;;;;;1.42;84.67676;96474.24;;;;
2021/02/25 03:36:24;;;;;;;22.25;4.400001;;;;;;;1.42;84.67676;96474.24;;;;
2021/02/25 03:37:25;;;;;;;22.25;4.400001;;;;;;;1.42;84.67676;96474.24;;;;
2021/02/25 03:38:26;;;;;;;22.25;4.400001;;;;;;;1.42;84.67676;96474.24;;;;
2021/02/25 03:39:26;;;;;;;15.8;4.75;;;;;;;1.35;85.01465;96475.92;;;;
2021/02/25 03:40:27;;;;;;;15.8;4.75;;;;;;;1.35;85.01465;96475.92;;;;
2021/02/25 03:41:27;;;;;;;15.8;4.75;;;;;;;1.35;85.01465;96475.92;;;;
2021/02/25 03:42:28;;;;;;;15.8;4.75;;;;;;;1.35;85.01465;96475.92;;;;
2021/02/25 03:43:28;;;;;;;15.8;4.75;;;;;;;1.35;85.01465;96475.92;;;;
2021/02/25 03:44:29;;;;;;;15.8;4.75;;;;;;;1.35;85.01465;96475.92;;;;
2021/02/25 03:45:29;;;;;;;15.8;4.75;;;;;;;1.35;85.01465;96475.92;;;;
2021/02/25 03:46:30;;;;;;;15.8;4.75;;;;;;;1.35;85.01465;96475.92;;;;
2021/02/25 03:47:30;;;;;;;15.8;4.75;;;;;;;1.35;85.01465;96475.92;;;;
2021/02/25 03:48:31;;;;;;;15.8;4.75;;;;;;;1.35;85.01465;96475.92;;;;
2021/02/25 03:49:31;;;;;;;15.8;4.75;;;;;;;1.35;85.01465;96475.92;;;;
2021/02/25 03:50:32;;;;;;;15.65;4.5;;;;;;;1.3;85.0791;96482.15;;;;
2021/02/25 03:51:33;;;;;;;15.65;4.5;;;;;;;1.3;85.0791;96482.15;;;;
2021/02/25 03:52:33;;;;;;;15.65;4.5;;;;;;;1.3;85.0791;96482.15;;;;
2021/02/25 03:53:34;;;;;;;15.65;4.5;;;;;;;1.3;85.0791;96482.15;;;;
2021/02/25 03:54:34;;;;;;;15.65;4.5;;;;;;;1.3;85.0791;96482.15;;;;
2021/02/25 03:55:35;;;;;;;15.65;4.5;;;;;;;1.3;85.0791;96482.15;;;;
2021/02/25 03:56:35;;;;;;;15.65;4.5;;;;;;;1.3;85.0791;96482.15;;;;
2021/02/25 03:57:36;;;;;;;15.65;4.5;;;;;;;1.3;85.0791;96482.15;;;;
2021/02/25 03:58:37;;;;;;;15.65;4.5;;;;;;;1.3;85.0791;96482.15;;;;
2021/02/25 03:59:38;;;;;;;15.65;4.5;;;;;;;1.3;85.0791;96482.15;;;;
2021/02/25 04:00:38;;;;;;;15.65;4.5;;;;;;;1.3;85.0791;96482.15;;;;
2021/02/25 04:01:39;;;;;;;18.45;4.45;;;;;;;1.22;85.07617;96484.27;;;;
2021/02/25 04:02:40;;;;;;;18.45;4.45;;;;;;;1.22;85.07617;96484.27;;;;
2021/02/25 04:03:40;;;;;;;18.45;4.45;;;;;;;1.22;85.07617;96484.27;;;;
2021/02/25 04:04:41;;;;;;;18.45;4.45;;;;;;;1.22;85.07617;96484.27;;;;
2021/02/25 04:05:41;;;;;;;18.45;4.45;;;;;;;1.22;85.07617;96484.27;;;;
2021/02/25 04:06:42;;;;;;;18.45;4.45;;;;;;;1.22;85.07617;96484.27;;;;
2021/02/25 04:07:42;;;;;;;18.45;4.45;;;;;;;1.22;85.07617;96484.27;;;;
2021/02/25 04:08:43;;;;;;;18.45;4.45;;;;;;;1.22;85.07617;96484.27;;;;
2021/02/25 04:09:43;;;;;;;18.45;4.45;;;;;;;1.22;85.07617;96484.27;;;;
2021/02/25 04:10:44;;;;;;;18.45;4.45;;;;;;;1.22;85.07617;96484.27;;;;
2021/02/25 04:11:44;;;;;;;19.65;4.25;;;;;;;1.05;85.25977;96488.61;;;;
2021/02/25 04:12:45;;;;;;;19.65;4.25;;;;;;;1.05;85.25977;96488.61;;;;
2021/02/25 04:13:45;;;;;;;19.65;4.25;;;;;;;1.05;85.25977;96488.61;;;;
2021/02/25 04:14:46;;;;;;;19.65;4.25;;;;;;;1.05;85.25977;96488.61;;;;
2021/02/25 04:15:46;;;;;;;19.65;4.25;;;;;;;1.05;85.25977;96488.61;;;;
2021/02/25 04:16:47;;;;;;;19.65;4.25;;;;;;;1.05;85.25977;96488.61;;;;
2021/02/25 04:17:47;;;;;;;19.65;4.25;;;;;;;1.05;85.25977;96488.61;;;;
2021/02/25 04:18:48;;;;;;;19.65;4.25;;;;;;;1.05;85.25977;96488.61;;;;
2021/02/25 04:19:48;;;;;;;19.65;4.25;;;;;;;1.05;85.25977;96488.61;;;;
2021/02/25 04:20:49;;;;;;;19.65;4.25;;;;;;;1.05;85.25977;96488.61;;;;
2021/02/25 04:21:49;;;;;;;19.65;4.25;;;;;;;1.05;85.25977;96488.61;;;;
2021/02/25 04:22:50;;;;;;;19.5;4.6;;;;;;;0.93;85.63184;96482.67;;;;
2021/02/25 04:23:50;;;;;;;19.5;4.6;;;;;;;0.93;85.63184;96482.67;;;;
2021/02/25 04:24:51;;;;;;;19.5;4.6;;;;;;;0.93;85.63184;96482.67;;;;
2021/02/25 04:25:51;;;;;;;19.5;4.6;;;;;;;0.93;85.63184;96482.67;;;;
2021/02/25 04:26:52;;;;;;;19.5;4.6;;;;;;;0.93;85.63184;96482.67;;;;
2021/02/25 04:27:52;;;;;;;19.5;4.6;;;;;;;0.93;85.63184;96482.67;;;;
2021/02/25 04:28:53;;;;;;;19.5;4.6;;;;;;;0.93;85.63184;96482.67;;;;
2021/02/25 04:29:54;;;;;;;19.5;4.6;;;;;;;0.93;85.63184;96482.67;;;;
2021/02/25 04:30:54;;;;;;;19.5;4.6;;;;;;;0.93;85.63184;96482.67;;;;
2021/02/25 04:31:55;;;;;;;19.5;4.6;;;;;;;0.93;85.63184;96482.67;;;;
2021/02/25 04:32:55;;;;;;;17.05;4.3;;;;;;;0.9;85.85742;96482.95;;;;
2021/02/25 04:33:56;;;;;;;17.05;4.3;;;;;;;0.9;85.85742;96482.95;;;;
2021/02/25 04:34:56;;;;;;;17.05;4.3;;;;;;;0.9;85.85742;96482.95;;;;
2021/02/25 04:35:57;;;;;;;17.05;4.3;;;;;;;0.9;85.85742;96482.95;;;;
2021/02/25 04:36:57;;;;;;;17.05;4.3;;;;;;;0.9;85.85742;96482.95;;;;
2021/02/25 04:37:58;;;;;;;17.05;4.3;;;;;;;0.9;85.85742;96482.95;;;;
2021/02/25 04:38:58;;;;;;;17.05;4.3;;;;;;;0.9;85.85742;96482.95;;;;
2021/02/25 04:39:59;;;;;;;17.05;4.3;;;;;;;0.9;85.85742;96482.95;;;;
2021/02/25 04:40:59;;;;;;;17.05;4.3;;;;;;;0.9;85.85742;96482.95;;;;
2021/02/25 04:42:01;;;;;;;17.05;4.3;;;;;;;0.9;85.85742;96482.95;;;;
2021/02/25 04:43:01;;;;;;;17.05;4.3;;;;;;;0.9;85.85742;96482.95;;;;
2021/02/25 04:44:02;;;;;;;15.95;4.7;;;;;;;0.89;85.85352;96486.61;;;;
2021/02/25 04:45:03;;;;;;;15.95;4.7;;;;;;;0.89;85.85352;96486.61;;;;
2021/02/25 04:46:05;;;;;;;15.95;4.7;;;;;;;0.89;85.85352;96486.61;;;;
2021/02/25 04:47:05;;;;;;;15.95;4.7;;;;;;;0.89;85.85352;96486.61;;;;
2021/02/25 04:48:06;;;;;;;15.95;4.7;;;;;;;0.89;85.85352;96486.61;;;;
2021/02/25 04:49:07;;;;;;;15.95;4.7;;;;;;;0.89;85.85352;96486.61;;;;
2021/02/25 04:50:08;;;;;;;15.95;4.7;;;;;;;0.89;85.85352;96486.61;;;;
2021/02/25 04:51:09;;;;;;;15.95;4.7;;;;;;;0.89;85.85352;96486.61;;;;
2021/02/25 04:52:10;;;;;;;15.95;4.7;;;;;;;0.89;85.85352;96486.61;;;;
2021/02/25 04:53:11;;;;;;;15.95;4.7;;;;;;;0.89;85.85352;96486.61;;;;
2021/02/25 04:54:11;;;;;;;20.15;4.650001;;;;;;;0.85;85.99121;96483.47;;;;
2021/02/25 04:55:12;;;;;;;20.15;4.650001;;;;;;;0.85;85.99121;96483.47;;;;
2021/02/25 04:56:12;;;;;;;20.15;4.650001;;;;;;;0.85;85.99121;96483.47;;;;
2021/02/25 04:57:13;;;;;;;20.15;4.650001;;;;;;;0.85;85.99121;96483.47;;;;
2021/02/25 04:58:13;;;;;;;20.15;4.650001;;;;;;;0.85;85.99121;96483.47;;;;
2021/02/25 04:59:21;;;;;;;20.15;4.650001;;;;;;;0.85;85.99121;96483.47;;;;
2021/02/25 05:00:21;;;;;;;20.15;4.650001;;;;;;;0.85;85.99121;96483.47;;;;
2021/02/25 05:01:22;;;;;;;20.15;4.650001;;;;;;;0.85;85.99121;96483.47;;;;
2021/02/25 05:02:24;;;;;;;20.15;4.650001;;;;;;;0.85;85.99121;96483.47;;;;
2021/02/25 05:03:24;;;;;;;20.15;4.650001;;;;;;;0.85;85.99121;96483.47;;;;
2021/02/25 05:04:25;;;;;;;20.15;4.650001;;;;;;;0.85;85.99121;96483.47;;;;
2021/02/25 05:05:26;;;;;;;17.25;4.199999;;;;;;;0.81;86.16113;96486.1;;;;
2021/02/25 05:06:26;;;;;;;17.25;4.199999;;;;;;;0.81;86.16113;96486.1;;;;
2021/02/25 05:07:27;;;;;;;17.25;4.199999;;;;;;;0.81;86.16113;96486.1;;;;
2021/02/25 05:08:27;;;;;;;17.25;4.199999;;;;;;;0.81;86.16113;96486.1;;;;
2021/02/25 05:09:30;;;;;;;17.25;4.199999;;;;;;;0.81;86.16113;96486.1;;;;
2021/02/25 05:10:30;;;;;;;17.25;4.199999;;;;;;;0.81;86.16113;96486.1;;;;
2021/02/25 05:11:31;;;;;;;17.25;4.199999;;;;;;;0.81;86.16113;96486.1;;;;
2021/02/25 05:12:31;;;;;;;17.25;4.199999;;;;;;;0.81;86.16113;96486.1;;;;
2021/02/25 05:13:32;;;;;;;17.25;4.199999;;;;;;;0.81;86.16113;96486.1;;;;
2021/02/25 05:14:32;;;;;;;17.25;4.199999;;;;;;;0.81;86.16113;96486.1;;;;
2021/02/25 05:15:33;;;;;;;18.5;4.050001;;;;;;;0.73;86.41699;96473.54;;;;
2021/02/25 05:16:33;;;;;;;18.5;4.050001;;;;;;;0.73;86.41699;96473.54;;;;
2021/02/25 05:17:34;;;;;;;18.5;4.050001;;;;;;;0.73;86.41699;96473.54;;;;
2021/02/25 05:18:35;;;;;;;18.5;4.050001;;;;;;;0.73;86.41699;96473.54;;;;
2021/02/25 05:19:36;;;;;;;18.5;4.050001;;;;;;;0.73;86.41699;96473.54;;;;
2021/02/25 05:20:36;;;;;;;18.5;4.050001;;;;;;;0.73;86.41699;96473.54;;;;
2021/02/25 05:21:37;;;;;;;18.5;4.050001;;;;;;;0.73;86.41699;96473.54;;;;
2021/02/25 05:22:37;;;;;;;18.5;4.050001;;;;;;;0.73;86.41699;96473.54;;;;
2021/02/25 05:23:38;;;;;;;18.5;4.050001;;;;;;;0.73;86.41699;96473.54;;;;
2021/02/25 05:24:39;;;;;;;18.5;4.050001;;;;;;;0.73;86.41699;96473.54;;;;
2021/02/25 05:25:39;;;;;;;18.5;4.050001;;;;;;;0.73;86.41699;96473.54;;;;
2021/02/25 05:26:42;;;;;;;19.95;4.450001;;;;;;;0.68;86.76953;96478.52;;;;
2021/02/25 05:27:43;;;;;;;19.95;4.450001;;;;;;;0.68;86.76953;96478.52;;;;
2021/02/25 05:28:43;;;;;;;19.95;4.450001;;;;;;;0.68;86.76953;96478.52;;;;
2021/02/25 05:29:44;;;;;;;19.95;4.450001;;;;;;;0.68;86.76953;96478.52;;;;
2021/02/25 05:30:44;;;;;;;19.95;4.450001;;;;;;;0.68;86.76953;96478.52;;;;
2021/02/25 05:31:45;;;;;;;19.95;4.450001;;;;;;;0.68;86.76953;96478.52;;;;
2021/02/25 05:32:46;;;;;;;19.95;4.450001;;;;;;;0.68;86.76953;96478.52;;;;
2021/02/25 05:33:46;;;;;;;19.95;4.450001;;;;;;;0.68;86.76953;96478.52;;;;
2021/02/25 05:34:47;;;;;;;19.95;4.450001;;;;;;;0.68;86.76953;96478.52;;;;
2021/02/25 05:35:48;;;;;;;19.95;4.450001;;;;;;;0.68;86.76953;96478.52;;;;
2021/02/25 05:36:48;;;;;;;14.55;4.050001;;;;;;;0.66;86.98535;96480;;;;
2021/02/25 05:37:48;;;;;;;14.55;4.050001;;;;;;;0.66;86.98535;96480;;;;
2021/02/25 05:38:49;;;;;;;14.55;4.050001;;;;;;;0.66;86.98535;96480;;;;
2021/02/25 05:39:49;;;;;;;14.55;4.050001;;;;;;;0.66;86.98535;96480;;;;
2021/02/25 05:40:50;;;;;;;14.55;4.050001;;;;;;;0.66;86.98535;96480;;;;
2021/02/25 05:41:51;;;;;;;14.55;4.050001;;;;;;;0.66;86.98535;96480;;;;
2021/02/25 05:42:51;;;;;;;14.55;4.050001;;;;;;;0.66;86.98535;96480;;;;
2021/02/25 05:43:52;;;;;;;14.55;4.050001;;;;;;;0.66;86.98535;96480;;;;